マガダン の空港の天気 - METARとTAF

マガダン・ソコル空港 ( UHMM / GDX ) - ロシア マガダン
飛行場実況気象(Metar)
観測時間03/07 01:00 MAGT (03/06 14:00 UTC)
風向・風速北 1m/s
視程10km以上
天気現象
なし
気温-32℃
湿度68%
気圧1001hPa
METARUHMM 061400Z 35001MPS 9999 NSC M32/M36 Q1001 RMK QFE736 R28/04001MPS
過去の天気等 Google飛行場航空写真 Wunderground天気予報

過去48時間のMETAR

飛行場予報(TAF)
発表時間: 3/06 21:50 MAGT (3/06 10:50 UTC)
予報対象時間: 6日23時 MAGT ~ 8日5時 MAGT
風向・風速北北西 3m/s 瞬間風速 8m/s
視程10km以上
なし
TAF UHMM 061050Z 0612/0718 34003G08MPS 9999 NSC